sensor_id;sensor_type;location;lat;lon;timestamp;pressure;altitude;pressure_sealevel;temperature;humidity
28167;BME280;15455;53.376;-6.262;2023-03-25T00:02:08;99087.38;;;7.24;100.00
28167;BME280;15455;53.376;-6.262;2023-03-25T00:04:53;99095.13;;;7.26;100.00
28167;BME280;15455;53.376;-6.262;2023-03-25T00:07:39;99106.34;;;7.28;100.00
28167;BME280;15455;53.376;-6.262;2023-03-25T00:10:26;99096.88;;;7.25;100.00
28167;BME280;15455;53.376;-6.262;2023-03-25T00:13:11;99110.72;;;7.24;100.00
28167;BME280;15455;53.376;-6.262;2023-03-25T00:15:57;99115.97;;;7.21;100.00
28167;BME280;15455;53.376;-6.262;2023-03-25T00:18:43;99112.56;;;7.16;100.00
28167;BME280;15455;53.376;-6.262;2023-03-25T00:21:32;99123.88;;;7.10;100.00
28167;BME280;15455;53.376;-6.262;2023-03-25T00:24:18;99133.38;;;7.11;100.00
28167;BME280;15455;53.376;-6.262;2023-03-25T00:27:04;99139.44;;;7.12;100.00
28167;BME280;15455;53.376;-6.262;2023-03-25T00:29:50;99144.56;;;7.17;100.00
28167;BME280;15455;53.376;-6.262;2023-03-25T00:32:35;99147.19;;;7.15;100.00
28167;BME280;15455;53.376;-6.262;2023-03-25T00:35:21;99163.56;;;7.17;100.00
28167;BME280;15455;53.376;-6.262;2023-03-25T00:38:08;99166.97;;;7.22;100.00
28167;BME280;15455;53.376;-6.262;2023-03-25T00:40:54;99161.78;;;7.24;100.00
28167;BME280;15455;53.376;-6.262;2023-03-25T00:43:39;99174.72;;;7.25;100.00
28167;BME280;15455;53.376;-6.262;2023-03-25T00:46:27;99170.34;;;7.27;100.00
28167;BME280;15455;53.376;-6.262;2023-03-25T00:49:13;99182.44;;;7.30;100.00
28167;BME280;15455;53.376;-6.262;2023-03-25T00:51:59;99180.69;;;7.29;100.00
28167;BME280;15455;53.376;-6.262;2023-03-25T00:54:45;99191.06;;;7.30;100.00
28167;BME280;15455;53.376;-6.262;2023-03-25T00:57:31;99197.16;;;7.29;100.00
28167;BME280;15455;53.376;-6.262;2023-03-25T01:00:17;99192.78;;;7.32;100.00
28167;BME280;15455;53.376;-6.262;2023-03-25T01:03:03;99198.78;;;7.34;100.00
28167;BME280;15455;53.376;-6.262;2023-03-25T01:05:50;99193.63;;;7.35;100.00
28167;BME280;15455;53.376;-6.262;2023-03-25T01:08:40;99200.53;;;7.33;100.00
28167;BME280;15455;53.376;-6.262;2023-03-25T01:11:28;99197.94;;;7.33;100.00
28167;BME280;15455;53.376;-6.262;2023-03-25T01:14:17;99207.50;;;7.31;100.00
28167;BME280;15455;53.376;-6.262;2023-03-25T01:17:03;99205.03;;;7.22;100.00
28167;BME280;15455;53.376;-6.262;2023-03-25T01:19:49;99212.91;;;7.16;100.00
28167;BME280;15455;53.376;-6.262;2023-03-25T01:22:35;99213.00;;;7.08;100.00
28167;BME280;15455;53.376;-6.262;2023-03-25T01:25:20;99207.84;;;7.03;100.00
28167;BME280;15455;53.376;-6.262;2023-03-25T01:28:06;99213.13;;;6.97;100.00
28167;BME280;15455;53.376;-6.262;2023-03-25T01:31:09;99207.16;;;6.89;100.00
28167;BME280;15455;53.376;-6.262;2023-03-25T01:33:56;99223.69;;;6.82;100.00
28167;BME280;15455;53.376;-6.262;2023-03-25T01:36:41;99212.59;;;6.70;100.00
28167;BME280;15455;53.376;-6.262;2023-03-25T01:39:31;99227.38;;;6.62;100.00
28167;BME280;15455;53.376;-6.262;2023-03-25T01:42:16;99233.47;;;6.58;100.00
28167;BME280;15455;53.376;-6.262;2023-03-25T01:48:31;99235.28;;;6.50;100.00
28167;BME280;15455;53.376;-6.262;2023-03-25T01:51:20;99232.78;;;6.42;100.00
28167;BME280;15455;53.376;-6.262;2023-03-25T01:54:07;99244.91;;;6.37;100.00
28167;BME280;15455;53.376;-6.262;2023-03-25T01:56:53;99248.38;;;6.36;100.00
28167;BME280;15455;53.376;-6.262;2023-03-25T01:59:40;99257.88;;;6.35;100.00
28167;BME280;15455;53.376;-6.262;2023-03-25T02:02:27;99269.97;;;6.35;100.00
28167;BME280;15455;53.376;-6.262;2023-03-25T02:05:31;99275.19;;;6.33;100.00
28167;BME280;15455;53.376;-6.262;2023-03-25T02:08:18;99286.34;;;6.37;100.00
28167;BME280;15455;53.376;-6.262;2023-03-25T02:11:05;99286.34;;;6.40;100.00
28167;BME280;15455;53.376;-6.262;2023-03-25T02:13:51;99292.38;;;6.42;100.00
28167;BME280;15455;53.376;-6.262;2023-03-25T02:32:21;99319.06;;;6.52;100.00
28167;BME280;15455;53.376;-6.262;2023-03-25T02:35:36;99322.53;;;6.49;100.00
28167;BME280;15455;53.376;-6.262;2023-03-25T02:47:12;99351.88;;;6.51;100.00
28167;BME280;15455;53.376;-6.262;2023-03-25T02:50:05;99359.72;;;6.45;100.00
28167;BME280;15455;53.376;-6.262;2023-03-25T02:52:56;99364.94;;;6.40;100.00
28167;BME280;15455;53.376;-6.262;2023-03-25T02:55:45;99377.09;;;6.32;100.00
28167;BME280;15455;53.376;-6.262;2023-03-25T02:58:32;99381.44;;;6.29;100.00
28167;BME280;15455;53.376;-6.262;2023-03-25T03:01:18;99376.28;;;6.22;100.00
28167;BME280;15455;53.376;-6.262;2023-03-25T03:04:07;99386.69;;;6.16;100.00
28167;BME280;15455;53.376;-6.262;2023-03-25T03:06:54;99390.16;;;6.14;100.00
28167;BME280;15455;53.376;-6.262;2023-03-25T03:09:46;99390.19;;;6.12;100.00
28167;BME280;15455;53.376;-6.262;2023-03-25T03:12:40;99394.53;;;6.07;100.00
28167;BME280;15455;53.376;-6.262;2023-03-25T03:15:54;99404.03;;;6.03;100.00
28167;BME280;15455;53.376;-6.262;2023-03-25T03:19:19;99423.06;;;5.98;100.00
28167;BME280;15455;53.376;-6.262;2023-03-25T03:25:33;99428.22;;;6.01;100.00
28167;BME280;15455;53.376;-6.262;2023-03-25T03:28:31;99439.47;;;5.98;100.00
28167;BME280;15455;53.376;-6.262;2023-03-25T03:34:51;99442.06;;;5.97;100.00
28167;BME280;15455;53.376;-6.262;2023-03-25T03:37:42;99451.53;;;5.93;100.00
28167;BME280;15455;53.376;-6.262;2023-03-25T03:40:31;99442.09;;;5.84;100.00
28167;BME280;15455;53.376;-6.262;2023-03-25T03:46:15;99457.63;;;5.84;100.00
28167;BME280;15455;53.376;-6.262;2023-03-25T03:49:08;99461.09;;;5.82;100.00
28167;BME280;15455;53.376;-6.262;2023-03-25T03:52:04;99471.47;;;5.77;100.00
28167;BME280;15455;53.376;-6.262;2023-03-25T03:54:57;99489.59;;;5.77;100.00
28167;BME280;15455;53.376;-6.262;2023-03-25T03:57:56;99487.88;;;5.73;100.00
28167;BME280;15455;53.376;-6.262;2023-03-25T04:03:42;99503.41;;;5.68;100.00
28167;BME280;15455;53.376;-6.262;2023-03-25T04:06:39;99511.19;;;5.64;100.00
28167;BME280;15455;53.376;-6.262;2023-03-25T04:09:33;99511.22;;;5.62;100.00
28167;BME280;15455;53.376;-6.262;2023-03-25T04:12:27;99512.06;;;5.56;100.00
28167;BME280;15455;53.376;-6.262;2023-03-25T04:15:14;99516.38;;;5.54;100.00
28167;BME280;15455;53.376;-6.262;2023-03-25T04:18:01;99521.56;;;5.56;100.00
28167;BME280;15455;53.376;-6.262;2023-03-25T04:20:47;99524.16;;;5.48;100.00
28167;BME280;15455;53.376;-6.262;2023-03-25T04:23:33;99523.31;;;5.48;100.00
28167;BME280;15455;53.376;-6.262;2023-03-25T04:26:22;99529.34;;;5.48;100.00
28167;BME280;15455;53.376;-6.262;2023-03-25T04:29:07;99533.66;;;5.49;100.00
28167;BME280;15455;53.376;-6.262;2023-03-25T04:31:54;99544.00;;;5.49;100.00
28167;BME280;15455;53.376;-6.262;2023-03-25T04:34:41;99547.44;;;5.48;100.00
28167;BME280;15455;53.376;-6.262;2023-03-25T04:37:27;99546.59;;;5.45;100.00
28167;BME280;15455;53.376;-6.262;2023-03-25T04:40:14;99559.53;;;5.40;100.00
28167;BME280;15455;53.376;-6.262;2023-03-25T04:43:06;99564.69;;;5.37;100.00
28167;BME280;15455;53.376;-6.262;2023-03-25T04:45:52;99562.13;;;5.35;100.00
28167;BME280;15455;53.376;-6.262;2023-03-25T04:48:42;99564.72;;;5.35;100.00
28167;BME280;15455;53.376;-6.262;2023-03-25T04:51:29;99569.88;;;5.37;100.00
28167;BME280;15455;53.376;-6.262;2023-03-25T04:54:14;99582.81;;;5.35;100.00
28167;BME280;15455;53.376;-6.262;2023-03-25T04:57:02;99589.72;;;5.35;100.00
28167;BME280;15455;53.376;-6.262;2023-03-25T04:59:48;99595.75;;;5.34;100.00
28167;BME280;15455;53.376;-6.262;2023-03-25T05:02:33;99593.16;;;5.35;100.00
28167;BME280;15455;53.376;-6.262;2023-03-25T05:05:21;99603.50;;;5.34;100.00
28167;BME280;15455;53.376;-6.262;2023-03-25T05:08:07;99607.84;;;5.29;100.00
28167;BME280;15455;53.376;-6.262;2023-03-25T05:10:54;99600.94;;;5.32;100.00
28167;BME280;15455;53.376;-6.262;2023-03-25T05:13:39;99604.38;;;5.42;100.00
28167;BME280;15455;53.376;-6.262;2023-03-25T05:16:25;99606.97;;;5.47;100.00
28167;BME280;15455;53.376;-6.262;2023-03-25T05:19:12;99609.53;;;5.54;100.00
28167;BME280;15455;53.376;-6.262;2023-03-25T05:21:59;99623.34;;;5.66;100.00
28167;BME280;15455;53.376;-6.262;2023-03-25T05:24:46;99619.91;;;5.70;100.00
28167;BME280;15455;53.376;-6.262;2023-03-25T05:27:32;99628.53;;;5.72;100.00
28167;BME280;15455;53.376;-6.262;2023-03-25T05:30:18;99625.94;;;5.73;100.00
28167;BME280;15455;53.376;-6.262;2023-03-25T05:33:05;99638.88;;;5.78;100.00
28167;BME280;15455;53.376;-6.262;2023-03-25T05:35:50;99645.78;;;5.82;100.00
28167;BME280;15455;53.376;-6.262;2023-03-25T05:38:37;99644.94;;;5.88;100.00
28167;BME280;15455;53.376;-6.262;2023-03-25T05:41:27;99644.03;;;5.92;100.00
28167;BME280;15455;53.376;-6.262;2023-03-25T05:44:22;99658.72;;;5.98;100.00
28167;BME280;15455;53.376;-6.262;2023-03-25T05:47:08;99663.91;;;6.01;100.00
28167;BME280;15455;53.376;-6.262;2023-03-25T05:49:53;99669.09;;;6.04;100.00
28167;BME280;15455;53.376;-6.262;2023-03-25T05:52:39;99671.69;;;6.04;100.00
28167;BME280;15455;53.376;-6.262;2023-03-25T05:55:26;99669.97;;;6.00;100.00
28167;BME280;15455;53.376;-6.262;2023-03-25T05:58:12;99674.25;;;5.91;100.00
28167;BME280;15455;53.376;-6.262;2023-03-25T06:00:58;99682.88;;;5.89;100.00
28167;BME280;15455;53.376;-6.262;2023-03-25T06:03:49;99693.25;;;5.83;100.00
28167;BME280;15455;53.376;-6.262;2023-03-25T06:06:35;99686.34;;;5.77;100.00
28167;BME280;15455;53.376;-6.262;2023-03-25T06:09:20;99701.03;;;5.72;100.00
28167;BME280;15455;53.376;-6.262;2023-03-25T06:12:06;99698.41;;;5.69;100.00
28167;BME280;15455;53.376;-6.262;2023-03-25T06:14:52;99698.41;;;5.67;100.00
28167;BME280;15455;53.376;-6.262;2023-03-25T06:17:40;99716.53;;;5.66;100.00
28167;BME280;15455;53.376;-6.262;2023-03-25T06:20:27;99720.00;;;5.68;100.00
28167;BME280;15455;53.376;-6.262;2023-03-25T06:23:12;99726.88;;;5.70;100.00
28167;BME280;15455;53.376;-6.262;2023-03-25T06:25:58;99734.69;;;5.78;100.00
28167;BME280;15455;53.376;-6.262;2023-03-25T06:28:44;99741.59;;;5.90;100.00
28167;BME280;15455;53.376;-6.262;2023-03-25T06:31:30;99738.16;;;5.99;100.00
28167;BME280;15455;53.376;-6.262;2023-03-25T06:34:18;99747.66;;;6.07;100.00
28167;BME280;15455;53.376;-6.262;2023-03-25T06:37:08;99751.09;;;6.17;100.00
28167;BME280;15455;53.376;-6.262;2023-03-25T06:39:53;99756.28;;;6.26;100.00
28167;BME280;15455;53.376;-6.262;2023-03-25T06:42:42;99758.00;;;6.34;100.00
28167;BME280;15455;53.376;-6.262;2023-03-25T06:45:43;99760.56;;;6.46;100.00
28167;BME280;15455;53.376;-6.262;2023-03-25T06:48:39;99764.88;;;6.56;100.00
28167;BME280;15455;53.376;-6.262;2023-03-25T06:51:25;99763.13;;;6.68;100.00
28167;BME280;15455;53.376;-6.262;2023-03-25T06:54:11;99769.16;;;6.77;100.00
28167;BME280;15455;53.376;-6.262;2023-03-25T06:56:57;99773.44;;;6.86;100.00
28167;BME280;15455;53.376;-6.262;2023-03-25T06:59:42;99775.16;;;6.95;100.00
28167;BME280;15455;53.376;-6.262;2023-03-25T07:02:27;99775.13;;;7.01;100.00
28167;BME280;15455;53.376;-6.262;2023-03-25T07:05:13;99778.56;;;7.06;100.00
28167;BME280;15455;53.376;-6.262;2023-03-25T07:07:59;99794.13;;;7.11;100.00
28167;BME280;15455;53.376;-6.262;2023-03-25T07:10:44;99790.63;;;7.17;100.00
28167;BME280;15455;53.376;-6.262;2023-03-25T07:13:30;99794.06;;;7.20;100.00
28167;BME280;15455;53.376;-6.262;2023-03-25T07:16:16;99801.00;;;7.21;100.00
28167;BME280;15455;53.376;-6.262;2023-03-25T07:19:01;99794.06;;;7.23;100.00
28167;BME280;15455;53.376;-6.262;2023-03-25T07:21:46;99793.16;;;7.27;100.00
28167;BME280;15455;53.376;-6.262;2023-03-25T07:24:32;99794.03;;;7.33;100.00
28167;BME280;15455;53.376;-6.262;2023-03-25T07:27:18;99798.34;;;7.32;100.00
28167;BME280;15455;53.376;-6.262;2023-03-25T07:30:13;99796.63;;;7.34;100.00
28167;BME280;15455;53.376;-6.262;2023-03-25T07:32:58;99789.72;;;7.30;100.00
28167;BME280;15455;53.376;-6.262;2023-03-25T07:35:44;99800.09;;;7.28;100.00
28167;BME280;15455;53.376;-6.262;2023-03-25T07:38:30;99797.50;;;7.32;100.00
28167;BME280;15455;53.376;-6.262;2023-03-25T07:41:15;99802.66;;;7.36;100.00
28167;BME280;15455;53.376;-6.262;2023-03-25T07:44:16;99812.16;;;7.39;100.00
28167;BME280;15455;53.376;-6.262;2023-03-25T07:47:07;99813.88;;;7.41;100.00
28167;BME280;15455;53.376;-6.262;2023-03-25T07:49:52;99828.53;;;7.52;100.00
28167;BME280;15455;53.376;-6.262;2023-03-25T07:52:37;99831.09;;;7.58;100.00
28167;BME280;15455;53.376;-6.262;2023-03-25T07:55:23;99832.81;;;7.63;100.00
28167;BME280;15455;53.376;-6.262;2023-03-25T07:58:08;99831.91;;;7.69;100.00
28167;BME280;15455;53.376;-6.262;2023-03-25T08:00:56;99838.84;;;7.72;100.00
28167;BME280;15455;53.376;-6.262;2023-03-25T08:03:41;99831.03;;;7.73;100.00
28167;BME280;15455;53.376;-6.262;2023-03-25T08:06:27;99838.81;;;7.73;100.00
28167;BME280;15455;53.376;-6.262;2023-03-25T08:09:12;99840.56;;;7.68;100.00
28167;BME280;15455;53.376;-6.262;2023-03-25T08:11:57;99839.75;;;7.64;100.00
28167;BME280;15455;53.376;-6.262;2023-03-25T08:14:43;99845.78;;;7.65;100.00
28167;BME280;15455;53.376;-6.262;2023-03-25T08:17:28;99843.16;;;7.68;100.00
28167;BME280;15455;53.376;-6.262;2023-03-25T08:20:14;99838.78;;;7.81;100.00
28167;BME280;15455;53.376;-6.262;2023-03-25T08:23:00;99847.44;;;7.83;100.00
28167;BME280;15455;53.376;-6.262;2023-03-25T08:25:48;99856.00;;;7.94;100.00
28167;BME280;15455;53.376;-6.262;2023-03-25T08:28:35;99860.28;;;8.02;100.00
28167;BME280;15455;53.376;-6.262;2023-03-25T08:31:20;99863.69;;;8.17;100.00
28167;BME280;15455;53.376;-6.262;2023-03-25T08:34:06;99864.50;;;8.21;100.00
28167;BME280;15455;53.376;-6.262;2023-03-25T08:36:51;99881.84;;;8.21;100.00
28167;BME280;15455;53.376;-6.262;2023-03-25T08:39:36;99876.56;;;8.30;100.00
28167;BME280;15455;53.376;-6.262;2023-03-25T08:42:24;99885.28;;;8.24;100.00
28167;BME280;15455;53.376;-6.262;2023-03-25T08:45:10;99893.03;;;8.29;100.00
28167;BME280;15455;53.376;-6.262;2023-03-25T08:47:56;99891.22;;;8.45;100.00
28167;BME280;15455;53.376;-6.262;2023-03-25T08:50:41;99899.78;;;8.62;100.00
28167;BME280;15455;53.376;-6.262;2023-03-25T08:53:27;99893.63;;;8.68;100.00
28167;BME280;15455;53.376;-6.262;2023-03-25T08:56:13;99898.84;;;8.71;100.00
28167;BME280;15455;53.376;-6.262;2023-03-25T08:58:59;99902.16;;;8.87;100.00
28167;BME280;15455;53.376;-6.262;2023-03-25T09:01:44;99908.13;;;8.95;100.00
28167;BME280;15455;53.376;-6.262;2023-03-25T09:04:29;99908.13;;;9.00;100.00
28167;BME280;15455;53.376;-6.262;2023-03-25T09:07:15;99924.56;;;9.02;100.00
28167;BME280;15455;53.376;-6.262;2023-03-25T09:10:05;99926.13;;;9.17;100.00
28167;BME280;15455;53.376;-6.262;2023-03-25T09:12:51;99930.59;;;9.06;100.00
28167;BME280;15455;53.376;-6.262;2023-03-25T09:15:36;99933.16;;;9.12;100.00
28167;BME280;15455;53.376;-6.262;2023-03-25T09:18:22;99934.78;;;9.22;100.00
28167;BME280;15455;53.376;-6.262;2023-03-25T09:21:07;99938.13;;;9.35;100.00
28167;BME280;15455;53.376;-6.262;2023-03-25T09:23:53;99942.34;;;9.45;100.00
28167;BME280;15455;53.376;-6.262;2023-03-25T09:26:38;99936.19;;;9.52;100.00
28167;BME280;15455;53.376;-6.262;2023-03-25T09:29:25;99930.09;;;9.55;100.00
28167;BME280;15455;53.376;-6.262;2023-03-25T09:32:10;99943.03;;;9.63;100.00
28167;BME280;15455;53.376;-6.262;2023-03-25T09:34:56;99932.53;;;9.67;100.00
28167;BME280;15455;53.376;-6.262;2023-03-25T09:37:42;99941.16;;;9.74;100.00
28167;BME280;15455;53.376;-6.262;2023-03-25T09:40:27;99939.59;;;9.61;100.00
28167;BME280;15455;53.376;-6.262;2023-03-25T09:43:26;99933.69;;;9.45;100.00
28167;BME280;15455;53.376;-6.262;2023-03-25T09:46:13;99939.88;;;9.31;100.00
28167;BME280;15455;53.376;-6.262;2023-03-25T09:49:00;99930.25;;;9.41;100.00
28167;BME280;15455;53.376;-6.262;2023-03-25T09:51:48;99943.88;;;9.66;100.00
28167;BME280;15455;53.376;-6.262;2023-03-25T09:54:37;99939.19;;;9.91;100.00
28167;BME280;15455;53.376;-6.262;2023-03-25T09:57:30;99945.03;;;10.11;100.00
28167;BME280;15455;53.376;-6.262;2023-03-25T10:00:23;99932.56;;;10.33;100.00
28167;BME280;15455;53.376;-6.262;2023-03-25T10:06:14;99943.47;;;10.61;100.00
28167;BME280;15455;53.376;-6.262;2023-03-25T10:09:17;99944.50;;;10.51;100.00
28167;BME280;15455;53.376;-6.262;2023-03-25T10:12:26;99944.66;;;10.41;100.00
28167;BME280;15455;53.376;-6.262;2023-03-25T10:24:45;99969.22;;;10.22;100.00
28167;BME280;15455;53.376;-6.262;2023-03-25T10:27:36;99965.78;;;10.17;100.00
28167;BME280;15455;53.376;-6.262;2023-03-25T10:30:26;99968.38;;;10.20;100.00
28167;BME280;15455;53.376;-6.262;2023-03-25T10:33:36;99967.50;;;10.19;100.00
28167;BME280;15455;53.376;-6.262;2023-03-25T10:36:35;99983.84;;;10.34;100.00
28167;BME280;15455;53.376;-6.262;2023-03-25T10:39:23;99980.38;;;10.33;100.00
28167;BME280;15455;53.376;-6.262;2023-03-25T10:42:29;99982.94;;;10.38;100.00
28167;BME280;15455;53.376;-6.262;2023-03-25T10:45:16;99986.22;;;10.51;100.00
28167;BME280;15455;53.376;-6.262;2023-03-25T10:48:19;99968.72;;;10.59;100.00
28167;BME280;15455;53.376;-6.262;2023-03-25T10:51:12;99987.91;;;10.56;100.00
28167;BME280;15455;53.376;-6.262;2023-03-25T10:53:59;100004.44;;;10.54;100.00
28167;BME280;15455;53.376;-6.262;2023-03-25T10:56:48;99982.81;;;10.47;100.00
28167;BME280;15455;53.376;-6.262;2023-03-25T10:59:40;99993.19;;;10.52;100.00
28167;BME280;15455;53.376;-6.262;2023-03-25T11:02:30;99993.16;;;10.53;100.00
28167;BME280;15455;53.376;-6.262;2023-03-25T11:05:19;99978.28;;;10.58;100.00
28167;BME280;15455;53.376;-6.262;2023-03-25T11:08:08;99989.53;;;10.64;100.00
28167;BME280;15455;53.376;-6.262;2023-03-25T11:11:08;99988.53;;;10.72;100.00
28167;BME280;15455;53.376;-6.262;2023-03-25T11:13:55;99988.38;;;10.82;100.00
28167;BME280;15455;53.376;-6.262;2023-03-25T11:16:45;99990.84;;;10.91;100.00
28167;BME280;15455;53.376;-6.262;2023-03-25T11:22:37;99997.06;;;11.35;100.00
28167;BME280;15455;53.376;-6.262;2023-03-25T11:25:31;100000.31;;;11.48;100.00
28167;BME280;15455;53.376;-6.262;2023-03-25T11:28:20;99994.66;;;11.23;100.00
28167;BME280;15455;53.376;-6.262;2023-03-25T11:31:16;99993.09;;;11.14;100.00
28167;BME280;15455;53.376;-6.262;2023-03-25T11:39:51;100002.41;;;11.29;100.00
28167;BME280;15455;53.376;-6.262;2023-03-25T11:42:41;100010.75;;;11.48;100.00
28167;BME280;15455;53.376;-6.262;2023-03-25T11:45:34;99986.72;;;11.77;100.00
28167;BME280;15455;53.376;-6.262;2023-03-25T11:48:23;100003.47;;;12.12;100.00
28167;BME280;15455;53.376;-6.262;2023-03-25T11:51:28;99991.50;;;12.41;100.00
28167;BME280;15455;53.376;-6.262;2023-03-25T11:54:17;99996.97;;;12.69;100.00
28167;BME280;15455;53.376;-6.262;2023-03-25T11:57:05;99996.75;;;12.79;100.00
28167;BME280;15455;53.376;-6.262;2023-03-25T12:00:05;99992.41;;;12.78;100.00
28167;BME280;15455;53.376;-6.262;2023-03-25T12:03:01;99987.41;;;12.68;100.00
28167;BME280;15455;53.376;-6.262;2023-03-25T12:08:58;99987.31;;;12.34;100.00
28167;BME280;15455;53.376;-6.262;2023-03-25T12:11:53;99981.88;;;12.03;100.00
28167;BME280;15455;53.376;-6.262;2023-03-25T12:18:00;99974.69;;;11.69;100.00
28167;BME280;15455;53.376;-6.262;2023-03-25T12:20:59;99978.34;;;11.60;100.00
28167;BME280;15455;53.376;-6.262;2023-03-25T12:36:17;99988.59;;;11.69;100.00
28167;BME280;15455;53.376;-6.262;2023-03-25T12:48:49;100006.34;;;11.52;100.00
28167;BME280;15455;53.376;-6.262;2023-03-25T12:54:55;99995.28;;;10.84;100.00
28167;BME280;15455;53.376;-6.262;2023-03-25T13:07:34;99990.56;;;11.09;100.00
28167;BME280;15455;53.376;-6.262;2023-03-25T13:10:24;99994.16;;;11.51;100.00
28167;BME280;15455;53.376;-6.262;2023-03-25T13:13:16;99980.13;;;12.03;100.00
28167;BME280;15455;53.376;-6.262;2023-03-25T13:16:10;99977.13;;;12.59;100.00
28167;BME280;15455;53.376;-6.262;2023-03-25T13:19:02;99982.13;;;13.06;100.00
28167;BME280;15455;53.376;-6.262;2023-03-25T13:21:56;99971.09;;;13.28;100.00
28167;BME280;15455;53.376;-6.262;2023-03-25T13:24:49;99982.81;;;13.14;100.00
28167;BME280;15455;53.376;-6.262;2023-03-25T13:27:39;99993.41;;;12.72;100.00
28167;BME280;15455;53.376;-6.262;2023-03-25T13:30:40;99988.03;;;12.39;100.00
28167;BME280;15455;53.376;-6.262;2023-03-25T13:33:34;100005.59;;;11.93;100.00
28167;BME280;15455;53.376;-6.262;2023-03-25T13:36:29;100036.47;;;11.23;100.00
28167;BME280;15455;53.376;-6.262;2023-03-25T13:39:28;100010.78;;;10.37;100.00
28167;BME280;15455;53.376;-6.262;2023-03-25T13:42:38;100004.19;;;10.07;100.00
28167;BME280;15455;53.376;-6.262;2023-03-25T13:48:46;100007.75;;;10.00;100.00
28167;BME280;15455;53.376;-6.262;2023-03-25T13:51:33;100011.56;;;10.42;100.00
28167;BME280;15455;53.376;-6.262;2023-03-25T14:12:58;99966.25;;;13.12;100.00
28167;BME280;15455;53.376;-6.262;2023-03-25T14:16:09;99968.03;;;13.12;100.00
28167;BME280;15455;53.376;-6.262;2023-03-25T14:19:06;99952.13;;;12.83;100.00
28167;BME280;15455;53.376;-6.262;2023-03-25T14:21:54;99950.75;;;12.68;100.00
28167;BME280;15455;53.376;-6.262;2023-03-25T14:24:40;99952.94;;;12.49;100.00
28167;BME280;15455;53.376;-6.262;2023-03-25T14:27:30;99955.16;;;12.27;100.00
28167;BME280;15455;53.376;-6.262;2023-03-25T14:30:26;99969.66;;;12.02;100.00
28167;BME280;15455;53.376;-6.262;2023-03-25T14:33:12;99979.50;;;11.43;100.00
28167;BME280;15455;53.376;-6.262;2023-03-25T14:35:58;99985.50;;;10.99;100.00
28167;BME280;15455;53.376;-6.262;2023-03-25T14:38:54;99993.81;;;10.69;100.00
28167;BME280;15455;53.376;-6.262;2023-03-25T14:44:48;100003.78;;;10.39;100.00
28167;BME280;15455;53.376;-6.262;2023-03-25T14:47:50;100007.78;;;10.64;100.00
28167;BME280;15455;53.376;-6.262;2023-03-25T14:50:36;100017.41;;;11.16;100.00
28167;BME280;15455;53.376;-6.262;2023-03-25T14:53:22;100001.88;;;11.58;100.00
28167;BME280;15455;53.376;-6.262;2023-03-25T14:56:15;99993.00;;;12.12;100.00
28167;BME280;15455;53.376;-6.262;2023-03-25T14:59:08;99982.44;;;12.56;100.00
28167;BME280;15455;53.376;-6.262;2023-03-25T15:02:01;99963.38;;;12.51;100.00
28167;BME280;15455;53.376;-6.262;2023-03-25T15:04:54;99958.53;;;12.34;100.00
28167;BME280;15455;53.376;-6.262;2023-03-25T15:07:50;99963.22;;;12.18;100.00
28167;BME280;15455;53.376;-6.262;2023-03-25T15:10:39;99972.00;;;12.15;100.00
28167;BME280;15455;53.376;-6.262;2023-03-25T15:13:29;99961.53;;;12.15;100.00
28167;BME280;15455;53.376;-6.262;2023-03-25T15:16:36;99960.00;;;12.46;100.00
28167;BME280;15455;53.376;-6.262;2023-03-25T15:19:23;99951.41;;;12.77;100.00
28167;BME280;15455;53.376;-6.262;2023-03-25T15:22:18;99956.81;;;13.05;100.00
28167;BME280;15455;53.376;-6.262;2023-03-25T15:25:14;99957.91;;;12.96;100.00
28167;BME280;15455;53.376;-6.262;2023-03-25T15:28:18;99946.84;;;12.85;100.00
28167;BME280;15455;53.376;-6.262;2023-03-25T15:31:39;99937.00;;;12.59;100.00
28167;BME280;15455;53.376;-6.262;2023-03-25T15:34:38;99943.28;;;12.51;100.00
28167;BME280;15455;53.376;-6.262;2023-03-25T15:47:07;99939.94;;;12.06;100.00
28167;BME280;15455;53.376;-6.262;2023-03-25T15:50:39;99940.34;;;12.28;100.00
28167;BME280;15455;53.376;-6.262;2023-03-25T15:56:29;99921.84;;;12.73;100.00
28167;BME280;15455;53.376;-6.262;2023-03-25T15:59:34;99919.81;;;12.48;100.00
28167;BME280;15455;53.376;-6.262;2023-03-25T16:02:29;99910.00;;;12.21;100.00
28167;BME280;15455;53.376;-6.262;2023-03-25T16:05:18;99915.53;;;12.07;100.00
28167;BME280;15455;53.376;-6.262;2023-03-25T16:08:08;99907.97;;;11.91;100.00
28167;BME280;15455;53.376;-6.262;2023-03-25T16:10:55;99906.38;;;11.84;100.00
28167;BME280;15455;53.376;-6.262;2023-03-25T16:13:41;99896.88;;;11.80;100.00
28167;BME280;15455;53.376;-6.262;2023-03-25T16:16:28;99898.75;;;11.75;100.00
28167;BME280;15455;53.376;-6.262;2023-03-25T16:19:34;99893.44;;;11.78;100.00
28167;BME280;15455;53.376;-6.262;2023-03-25T16:22:29;99892.53;;;11.80;100.00
28167;BME280;15455;53.376;-6.262;2023-03-25T16:25:38;99888.16;;;11.81;100.00
28167;BME280;15455;53.376;-6.262;2023-03-25T16:28:37;99875.97;;;11.80;100.00
28167;BME280;15455;53.376;-6.262;2023-03-25T16:31:30;99876.81;;;11.82;100.00
28167;BME280;15455;53.376;-6.262;2023-03-25T16:34:19;99878.28;;;11.95;100.00
28167;BME280;15455;53.376;-6.262;2023-03-25T16:37:05;99867.38;;;12.15;100.00
28167;BME280;15455;53.376;-6.262;2023-03-25T16:39:54;99867.63;;;12.42;100.00
28167;BME280;15455;53.376;-6.262;2023-03-25T16:42:39;99870.59;;;12.63;100.00
28167;BME280;15455;53.376;-6.262;2023-03-25T16:45:25;99870.94;;;12.83;100.00
28167;BME280;15455;53.376;-6.262;2023-03-25T16:48:15;99862.63;;;13.02;100.00
28167;BME280;15455;53.376;-6.262;2023-03-25T16:51:17;99866.97;;;13.03;100.00
28167;BME280;15455;53.376;-6.262;2023-03-25T16:54:19;99862.19;;;12.84;100.00
28167;BME280;15455;53.376;-6.262;2023-03-25T16:57:07;99860.19;;;12.61;100.00
28167;BME280;15455;53.376;-6.262;2023-03-25T16:59:54;99848.31;;;12.46;100.00
28167;BME280;15455;53.376;-6.262;2023-03-25T17:02:40;99840.78;;;12.34;100.00
28167;BME280;15455;53.376;-6.262;2023-03-25T17:05:27;99839.28;;;12.24;100.00